Time;durP1;ratioP1;P1;durP2;ratioP2;P2;SDS_P1;SDS_P2;PMS_P1;PMS_P2;Temp;Humidity;BMP_temperature;BMP_pressure;BME280_temperature;BME280_humidity;BME280_pressure;Samples;Min_cycle;Max_cycle;Signal;HPM_P1;HPM_P2
2022/12/09 00:00:53;;;;;;;13.20;9.02;;;;;;;-2.70;100.00;94761.84;5059679;28;24446;-72
2022/12/09 00:03:19;;;;;;;15.15;8.75;;;;;;;-2.73;100.00;94751.78;5066942;28;24461;-72
2022/12/09 00:05:46;;;;;;;18.65;9.38;;;;;;;-2.76;100.00;94751.88;5067574;28;24446;-72
2022/12/09 00:08:12;;;;;;;13.15;9.23;;;;;;;-2.75;100.00;94751.81;5062149;28;24440;-72
2022/12/09 00:10:39;;;;;;;17.38;8.80;;;;;;;-2.71;100.00;94758.50;5062310;28;24462;-72
2022/12/09 00:13:07;;;;;;;18.85;8.25;;;;;;;-2.76;100.00;94756.94;5067522;28;24797;-72
2022/12/09 00:15:33;;;;;;;15.23;8.13;;;;;;;-2.74;100.00;94750.13;5067605;28;24442;-72
2022/12/09 00:18:00;;;;;;;13.30;7.97;;;;;;;-2.85;100.00;94749.59;5063352;28;24438;-72
2022/12/09 00:20:26;;;;;;;12.63;8.80;;;;;;;-2.95;100.00;94743.94;5065908;28;24465;-72
2022/12/09 00:22:53;;;;;;;21.80;9.20;;;;;;;-2.93;100.00;94744.72;5064375;28;24805;-71
2022/12/09 00:25:19;;;;;;;20.47;9.23;;;;;;;-2.88;100.00;94737.00;5064885;28;24530;-72
2022/12/09 00:27:46;;;;;;;20.40;9.93;;;;;;;-2.80;100.00;94746.06;5064041;28;24443;-71
2022/12/09 00:30:14;;;;;;;14.20;9.45;;;;;;;-2.74;100.00;94740.81;5067808;28;24446;-71
2022/12/09 00:32:40;;;;;;;19.05;9.52;;;;;;;-2.73;100.00;94739.94;5064073;28;24449;-72
2022/12/09 00:35:07;;;;;;;13.00;9.52;;;;;;;-2.70;100.00;94736.50;5064971;28;24434;-71
2022/12/09 00:37:34;;;;;;;15.48;9.07;;;;;;;-2.81;100.00;94741.88;5063031;28;24431;-72
2022/12/09 00:40:01;;;;;;;17.98;9.27;;;;;;;-2.77;100.00;94738.38;5068196;28;24431;-72
2022/12/09 00:42:27;;;;;;;10.97;8.60;;;;;;;-2.68;100.00;94743.16;5065227;28;24538;-72
2022/12/09 00:44:53;;;;;;;25.70;8.98;;;;;;;-2.63;100.00;94727.84;5060956;28;24975;-72
2022/12/09 00:47:21;;;;;;;75.30;8.75;;;;;;;-3.04;100.00;94729.81;5060075;28;24434;-72
2022/12/09 00:49:48;;;;;;;21.55;6.75;;;;;;;-3.07;100.00;94729.06;5061024;28;24435;-72
2022/12/09 00:52:14;;;;;;;70.60;8.35;;;;;;;-3.14;100.00;94723.34;5059954;28;24443;-72
2022/12/09 00:54:41;;;;;;;13.70;7.10;;;;;;;-2.99;100.00;94729.69;5068786;28;24441;-72
2022/12/09 00:57:07;;;;;;;23.35;7.13;;;;;;;-2.86;100.00;94731.00;5066630;28;24467;-72
2022/12/09 00:59:34;;;;;;;25.57;7.80;;;;;;;-2.75;100.00;94739.16;5059809;28;25031;-72
2022/12/09 01:02:00;;;;;;;14.40;6.78;;;;;;;-2.74;100.00;94730.69;5062026;28;24453;-72
2022/12/09 01:04:28;;;;;;;19.88;6.50;;;;;;;-2.68;100.00;94727.97;5061684;28;24461;-72
2022/12/09 01:06:55;;;;;;;21.30;7.53;;;;;;;-2.71;100.00;94734.81;5061011;28;25007;-72
2022/12/09 01:09:21;;;;;;;29.95;7.60;;;;;;;-2.73;100.00;94729.81;5057628;28;24431;-72
2022/12/09 01:11:48;;;;;;;13.48;6.97;;;;;;;-2.67;100.00;94726.25;5062314;28;24441;-72
2022/12/09 01:14:14;;;;;;;17.98;7.63;;;;;;;-2.60;100.00;94726.91;5064558;28;24450;-72
2022/12/09 01:16:41;;;;;;;15.50;8.43;;;;;;;-2.40;100.00;94733.97;5062906;28;24532;-72
2022/12/09 01:19:10;;;;;;;14.10;8.07;;;;;;;-2.71;100.00;94724.69;5054722;28;24436;-71
2022/12/09 01:21:38;;;;;;;38.03;8.77;;;;;;;-3.04;100.00;94721.38;5062861;28;24445;-72
2022/12/09 01:24:07;;;;;;;15.60;8.43;;;;;;;-3.20;100.00;94724.31;5068399;28;24828;-72
2022/12/09 01:26:33;;;;;;;11.02;7.97;;;;;;;-3.33;100.00;94723.00;5063616;28;24439;-72
2022/12/09 01:29:00;;;;;;;12.27;7.78;;;;;;;-3.27;100.00;94724.50;5058173;28;24450;-72
2022/12/09 01:31:26;;;;;;;12.70;8.30;;;;;;;-3.46;100.00;94725.00;5062846;28;24430;-72
2022/12/09 01:33:54;;;;;;;27.45;8.73;;;;;;;-3.38;100.00;94727.31;5061855;28;24431;-71
2022/12/09 01:36:26;;;;;;;12.93;8.27;;;;;;;-3.40;100.00;94726.56;5064890;28;24431;-71
2022/12/09 01:38:54;;;;;;;12.05;8.40;;;;;;;-3.56;100.00;94721.06;5053304;28;25000;-72
2022/12/09 01:41:22;;;;;;;15.68;8.75;;;;;;;-3.63;100.00;94726.28;5056333;28;24434;-71
2022/12/09 01:44:11;;;;;;;12.93;8.67;;;;;;;-3.53;100.00;94720.13;5065321;28;25091;-72
2022/12/09 01:46:37;;;;;;;15.05;8.52;;;;;;;-3.59;100.00;94715.22;5058906;28;24847;-72
2022/12/09 01:49:05;;;;;;;12.10;8.17;;;;;;;-3.52;100.00;94715.03;5059919;28;24435;-71
2022/12/09 01:51:32;;;;;;;10.48;8.10;;;;;;;-3.79;100.00;94703.88;5062834;28;24438;-72
2022/12/09 01:54:01;;;;;;;10.35;9.07;;;;;;;-3.92;100.00;94702.53;5067178;28;24998;-72
2022/12/09 01:56:30;;;;;;;18.13;9.68;;;;;;;-3.72;100.00;94697.81;5057246;28;24446;-71
2022/12/09 01:59:00;;;;;;;22.23;10.20;;;;;;;-3.48;100.00;94696.38;5059753;28;24438;-71
2022/12/09 02:01:26;;;;;;;16.73;10.32;;;;;;;-3.73;100.00;94691.09;5068426;28;24445;-71
2022/12/09 02:03:53;;;;;;;31.33;10.57;;;;;;;-3.99;100.00;94689.19;5068265;28;24521;-72
2022/12/09 02:06:20;;;;;;;21.63;10.05;;;;;;;-4.06;100.00;94674.22;5059543;28;24446;-71
2022/12/09 02:08:48;;;;;;;15.52;9.65;;;;;;;-3.77;100.00;94676.03;5059298;28;24446;-71
2022/12/09 02:11:23;;;;;;;14.32;9.85;;;;;;;-4.00;100.00;94666.47;5067720;28;24439;-72
2022/12/09 02:14:00;;;;;;;28.55;10.38;;;;;;;-4.07;100.00;94664.97;5067192;28;24427;-71
2022/12/09 02:16:33;;;;;;;26.40;10.40;;;;;;;-4.06;100.00;94661.56;5061173;28;24436;-72
2022/12/09 02:19:05;;;;;;;20.80;10.90;;;;;;;-4.16;100.00;94666.00;5068180;28;24535;-72
2022/12/09 02:21:36;;;;;;;13.77;9.40;;;;;;;-4.14;100.00;94670.16;5067998;28;24524;-71
2022/12/09 02:24:12;;;;;;;18.13;10.45;;;;;;;-4.17;100.00;94666.88;5070675;28;24450;-72
2022/12/09 02:26:43;;;;;;;26.63;9.80;;;;;;;-4.34;100.00;94679.88;5062763;28;24466;-72
2022/12/09 02:29:40;;;;;;;17.65;10.05;;;;;;;-4.34;100.00;94671.47;5070143;28;24980;-71
2022/12/09 02:32:36;;;;;;;11.63;8.73;;;;;;;-4.23;100.00;94683.00;5070030;28;24454;-72
2022/12/09 02:35:09;;;;;;;16.73;8.75;;;;;;;-4.03;100.00;94667.38;5070591;28;24435;-71
2022/12/09 02:37:42;;;;;;;16.17;8.30;;;;;;;-3.96;100.00;94668.88;5063583;28;24860;-72
2022/12/09 02:40:14;;;;;;;11.40;7.45;;;;;;;-3.91;100.00;94672.13;5070802;28;24812;-72
2022/12/09 02:42:44;;;;;;;22.98;7.10;;;;;;;-3.91;100.00;94664.53;5071204;28;24449;-71
2022/12/09 02:45:13;;;;;;;19.23;7.88;;;;;;;-3.75;100.00;94654.88;5064120;28;24447;-72
2022/12/09 02:47:43;;;;;;;24.60;7.45;;;;;;;-3.77;100.00;94648.19;5070937;28;24470;-71
2022/12/09 02:50:14;;;;;;;15.23;7.18;;;;;;;-3.76;100.00;94645.63;5069562;28;24458;-72
2022/12/09 02:52:43;;;;;;;29.67;6.57;;;;;;;-3.74;100.00;94643.91;5071022;28;24438;-72
2022/12/09 02:55:13;;;;;;;12.35;6.13;;;;;;;-3.70;100.00;94634.53;5061976;28;24431;-71
2022/12/09 02:57:40;;;;;;;19.40;6.33;;;;;;;-3.85;100.00;94638.28;5066235;28;24500;-71
2022/12/09 03:00:08;;;;;;;27.80;6.80;;;;;;;-3.76;100.00;94638.03;5065939;28;24438;-72
2022/12/09 03:02:37;;;;;;;29.20;6.78;;;;;;;-3.71;100.00;94632.84;5070722;28;24919;-71
2022/12/09 03:05:12;;;;;;;22.80;6.20;;;;;;;-3.84;100.00;94631.50;5064366;28;24805;-72
2022/12/09 03:07:47;;;;;;;15.23;8.13;;;;;;;-3.67;100.00;94630.22;5061466;28;24446;-72
2022/12/09 03:10:19;;;;;;;23.60;7.32;;;;;;;-3.49;100.00;94631.41;5069212;28;24836;-72
2022/12/09 03:12:56;;;;;;;17.63;7.18;;;;;;;-3.54;100.00;94637.47;5066732;28;24457;-72
2022/12/09 03:15:27;;;;;;;14.73;6.95;;;;;;;-3.65;100.00;94637.75;5064277;28;24438;-72
2022/12/09 03:17:56;;;;;;;22.58;7.20;;;;;;;-3.74;100.00;94626.19;5071258;28;24812;-72
2022/12/09 03:20:27;;;;;;;11.15;6.53;;;;;;;-3.79;100.00;94622.91;5066392;28;24438;-71
2022/12/09 03:22:59;;;;;;;17.50;6.87;;;;;;;-3.80;100.00;94626.31;5067176;28;25063;-72
2022/12/09 03:25:31;;;;;;;30.58;6.93;;;;;;;-3.91;100.00;94620.72;5065034;28;24454;-72
2022/12/09 03:28:01;;;;;;;34.50;7.35;;;;;;;-4.19;100.00;94603.72;5070439;28;24442;-72
2022/12/09 03:30:31;;;;;;;18.05;6.30;;;;;;;-4.10;100.00;94609.41;5068446;28;24431;-72
2022/12/09 03:32:58;;;;;;;9.95;6.72;;;;;;;-3.78;100.00;94599.31;5062171;28;24442;-72
2022/12/09 03:35:29;;;;;;;13.55;7.47;;;;;;;-3.41;100.00;94599.16;5059263;28;24438;-72
2022/12/09 03:38:00;;;;;;;8.48;7.47;;;;;;;-3.77;100.00;94598.44;5067103;28;24435;-72
2022/12/09 03:40:30;;;;;;;21.75;8.32;;;;;;;-3.75;100.00;94596.66;5067994;28;24439;-72
2022/12/09 03:43:00;;;;;;;32.28;8.35;;;;;;;-3.95;100.00;94602.25;5063148;28;24431;-72
2022/12/09 03:45:27;;;;;;;11.57;7.38;;;;;;;-4.01;100.00;94606.63;5066399;28;24453;-72
2022/12/09 03:47:54;;;;;;;12.02;7.25;;;;;;;-4.08;100.00;94615.25;5058831;28;25023;-73
2022/12/09 03:50:23;;;;;;;17.75;7.75;;;;;;;-3.90;100.00;94610.53;5062189;28;25019;-72
2022/12/09 03:52:52;;;;;;;11.88;6.90;;;;;;;-4.11;100.00;94613.63;5063727;28;24435;-72
2022/12/09 03:55:28;;;;;;;8.75;7.05;;;;;;;-4.24;100.00;94610.56;5065987;28;24435;-72
2022/12/09 03:57:59;;;;;;;16.33;7.85;;;;;;;-4.16;100.00;94608.66;5066277;28;24991;-72
2022/12/09 04:00:26;;;;;;;13.32;7.72;;;;;;;-4.15;100.00;94609.53;5068157;28;24448;-72
2022/12/09 04:02:53;;;;;;;7.32;6.50;;;;;;;-4.09;100.00;94598.41;5063615;28;24442;-72
2022/12/09 04:05:19;;;;;;;17.80;7.60;;;;;;;-4.06;100.00;94600.88;5062694;28;24462;-72
2022/12/09 04:07:46;;;;;;;10.77;7.03;;;;;;;-4.13;100.00;94592.59;5070783;28;24515;-72
2022/12/09 04:10:13;;;;;;;22.20;6.85;;;;;;;-3.82;100.00;94594.34;5059232;28;24473;-72
2022/12/09 04:12:40;;;;;;;12.73;7.35;;;;;;;-3.99;100.00;94585.50;5064157;28;24474;-72
2022/12/09 04:15:09;;;;;;;12.02;7.07;;;;;;;-4.10;100.00;94579.88;5067151;28;24429;-71
2022/12/09 04:17:36;;;;;;;17.13;7.28;;;;;;;-4.45;100.00;94568.97;5064694;28;24797;-72
2022/12/09 04:20:02;;;;;;;16.25;7.53;;;;;;;-4.43;100.00;94571.44;5064555;28;24462;-72
2022/12/09 04:22:29;;;;;;;10.27;7.20;;;;;;;-4.23;100.00;94561.66;5063426;28;24438;-72
2022/12/09 04:24:55;;;;;;;11.30;7.50;;;;;;;-4.40;100.00;94571.38;5067199;28;24485;-72
2022/12/09 04:27:22;;;;;;;18.50;7.63;;;;;;;-4.42;100.00;94573.09;5069187;28;24434;-71
2022/12/09 04:29:50;;;;;;;12.45;7.63;;;;;;;-4.48;100.00;94571.56;5062191;28;24434;-72
2022/12/09 04:32:16;;;;;;;11.13;7.53;;;;;;;-4.43;100.00;94564.69;5062426;28;25038;-72
2022/12/09 04:34:43;;;;;;;14.27;8.68;;;;;;;-4.30;100.00;94551.72;5065927;28;25008;-72
2022/12/09 04:37:09;;;;;;;11.52;8.02;;;;;;;-4.49;100.00;94553.88;5068165;28;24431;-72
2022/12/09 04:39:36;;;;;;;10.88;7.63;;;;;;;-4.60;100.00;94548.25;5061970;28;24802;-72
2022/12/09 04:42:03;;;;;;;15.15;8.02;;;;;;;-4.44;100.00;94544.50;5062649;28;24450;-72
2022/12/09 04:44:29;;;;;;;18.00;7.75;;;;;;;-4.51;100.00;94548.06;5066945;28;24454;-73
2022/12/09 04:46:57;;;;;;;21.73;8.70;;;;;;;-4.50;100.00;94545.47;5060782;28;24430;-72
2022/12/09 04:49:23;;;;;;;17.55;8.02;;;;;;;-4.55;100.00;94534.66;5057784;28;25007;-72
2022/12/09 04:51:50;;;;;;;15.63;8.70;;;;;;;-4.73;100.00;94532.56;5062802;28;24442;-71
2022/12/09 04:54:17;;;;;;;16.15;8.73;;;;;;;-4.43;100.00;94533.53;5067631;28;24449;-72
2022/12/09 04:56:43;;;;;;;19.27;9.00;;;;;;;-4.48;100.00;94528.59;5069001;28;24437;-72
2022/12/09 04:59:10;;;;;;;10.52;8.77;;;;;;;-4.51;100.00;94531.19;5061130;28;24435;-72
2022/12/09 05:01:36;;;;;;;10.77;7.95;;;;;;;-4.64;100.00;94535.69;5068676;28;25046;-72
2022/12/09 05:04:04;;;;;;;10.43;7.75;;;;;;;-4.78;100.00;94532.69;5061065;28;25042;-72
2022/12/09 05:06:31;;;;;;;8.93;7.50;;;;;;;-4.70;100.00;94520.69;5069365;28;24443;-72
2022/12/09 05:08:58;;;;;;;9.73;8.70;;;;;;;-4.28;100.00;94519.69;5068212;28;24983;-72
2022/12/09 05:11:24;;;;;;;10.23;9.05;;;;;;;-4.34;100.00;94518.13;5068102;28;24434;-71
2022/12/09 05:13:51;;;;;;;12.20;9.57;;;;;;;-4.57;100.00;94517.88;5067379;28;24524;-72
2022/12/09 05:16:19;;;;;;;10.05;8.35;;;;;;;-4.67;100.00;94525.69;5067368;28;24419;-71
2022/12/09 05:18:46;;;;;;;10.07;8.63;;;;;;;-4.70;100.00;94525.75;5063193;28;24439;-71
2022/12/09 05:21:17;;;;;;;10.38;9.38;;;;;;;-4.67;100.00;94519.81;5065642;28;24447;-71
2022/12/09 05:23:44;;;;;;;9.80;8.38;;;;;;;-4.69;100.00;94519.81;5059715;28;24435;-71
2022/12/09 05:26:12;;;;;;;10.25;8.13;;;;;;;-4.68;100.00;94516.44;5066600;28;24447;-71
2022/12/09 05:28:39;;;;;;;9.77;7.78;;;;;;;-4.71;100.00;94511.47;5066289;28;24453;-71
2022/12/09 05:31:07;;;;;;;11.02;7.95;;;;;;;-4.75;100.00;94509.03;5058904;28;24827;-71
2022/12/09 05:33:34;;;;;;;9.50;7.97;;;;;;;-4.43;100.00;94514.13;5057454;28;24453;-71
2022/12/09 05:36:01;;;;;;;10.40;7.55;;;;;;;-4.70;100.00;94517.34;5067866;28;24438;-71
2022/12/09 05:38:29;;;;;;;9.38;8.02;;;;;;;-4.63;100.00;94511.28;5062425;28;24439;-71
2022/12/09 05:40:59;;;;;;;9.00;8.05;;;;;;;-4.58;100.00;94509.47;5068046;28;24435;-71
2022/12/09 05:43:25;;;;;;;9.57;8.23;;;;;;;-4.73;100.00;94510.66;5056334;28;24441;-71
2022/12/09 05:45:52;;;;;;;10.32;8.57;;;;;;;-4.78;100.00;94499.84;5060972;28;24466;-71
2022/12/09 05:48:18;;;;;;;11.80;8.00;;;;;;;-4.74;100.00;94498.91;5063009;28;24431;-71
2022/12/09 05:50:45;;;;;;;9.57;8.35;;;;;;;-4.69;100.00;94497.09;5068273;28;24443;-71
2022/12/09 05:53:11;;;;;;;9.32;8.00;;;;;;;-4.73;100.00;94504.78;5055875;28;24454;-71
2022/12/09 05:55:41;;;;;;;8.52;7.45;;;;;;;-4.74;100.00;94503.13;5061412;28;24663;-71
2022/12/09 05:58:07;;;;;;;12.85;8.10;;;;;;;-4.72;100.00;94507.25;5061028;28;24442;-71
2022/12/09 06:00:34;;;;;;;8.95;7.93;;;;;;;-4.69;100.00;94494.56;5061091;28;24434;-71
2022/12/09 06:03:00;;;;;;;12.93;9.15;;;;;;;-4.64;100.00;94495.28;5066978;28;24446;-71
2022/12/09 06:05:27;;;;;;;11.38;9.27;;;;;;;-4.60;100.00;94480.88;5057637;28;25047;-71
2022/12/09 06:07:53;;;;;;;12.90;8.23;;;;;;;-4.57;100.00;94477.44;5065483;28;24437;-71
2022/12/09 06:10:20;;;;;;;10.27;7.72;;;;;;;-4.52;100.00;94485.75;5067041;28;24801;-73
2022/12/09 06:12:48;;;;;;;10.45;7.78;;;;;;;-4.42;100.00;94488.00;5059678;28;24447;-71
2022/12/09 06:15:14;;;;;;;8.63;7.05;;;;;;;-4.50;100.00;94487.34;5060781;28;24433;-71
2022/12/09 06:17:41;;;;;;;7.70;6.90;;;;;;;-4.47;100.00;94486.47;5067520;28;24446;-73
2022/12/09 06:20:08;;;;;;;10.20;7.65;;;;;;;-4.34;100.00;94479.38;5063166;28;24441;-72
2022/12/09 06:22:34;;;;;;;11.20;7.03;;;;;;;-4.30;100.00;94481.81;5065174;28;24442;-71
2022/12/09 06:25:01;;;;;;;9.38;6.90;;;;;;;-4.23;100.00;94495.91;5068584;28;24451;-71
2022/12/09 06:27:27;;;;;;;8.23;7.43;;;;;;;-4.19;100.00;94486.56;5063650;28;24431;-70
2022/12/09 06:29:55;;;;;;;7.40;6.60;;;;;;;-4.28;100.00;94485.13;5069610;28;24515;-72
2022/12/09 06:32:22;;;;;;;10.10;7.85;;;;;;;-4.24;100.00;94490.91;5067803;28;24442;-72
2022/12/09 06:34:48;;;;;;;7.50;6.70;;;;;;;-4.22;100.00;94487.50;5060985;28;24988;-72
2022/12/09 06:37:15;;;;;;;10.80;7.10;;;;;;;-4.20;100.00;94484.91;5065345;28;24450;-72
2022/12/09 06:39:41;;;;;;;7.95;7.00;;;;;;;-4.22;100.00;94481.59;5062435;28;25014;-70
2022/12/09 06:42:08;;;;;;;7.53;6.70;;;;;;;-4.22;100.00;94489.19;5064821;28;24438;-70
2022/12/09 06:44:34;;;;;;;8.43;7.38;;;;;;;-4.20;100.00;94485.72;5063329;28;24438;-72
2022/12/09 06:47:02;;;;;;;9.98;7.63;;;;;;;-4.14;100.00;94487.28;5066174;28;24591;-71
2022/12/09 06:49:29;;;;;;;20.60;13.02;;;;;;;-4.09;100.00;94482.94;5062665;28;24434;-74
2022/12/09 06:51:55;;;;;;;20.88;12.82;;;;;;;-4.06;100.00;94492.97;5057990;28;24446;-73
2022/12/09 06:54:22;;;;;;;19.98;12.95;;;;;;;-4.04;100.00;94491.25;5063374;28;24443;-73
2022/12/09 06:56:48;;;;;;;26.10;15.88;;;;;;;-4.02;100.00;94489.47;5067043;28;24505;-73
2022/12/09 06:59:15;;;;;;;28.08;17.90;;;;;;;-4.00;100.00;94491.97;5067082;28;24443;-73
2022/12/09 07:01:41;;;;;;;24.42;15.48;;;;;;;-4.01;100.00;94486.06;5066755;28;24454;-74
2022/12/09 07:04:12;;;;;;;21.90;12.43;;;;;;;-4.00;100.00;94484.41;5070643;28;24454;-73
2022/12/09 07:06:41;;;;;;;16.00;9.57;;;;;;;-3.92;100.00;94474.91;5071163;28;24537;-74
2022/12/09 07:09:09;;;;;;;9.10;7.90;;;;;;;-3.92;100.00;94480.78;5065642;28;25007;-73
2022/12/09 07:11:37;;;;;;;8.00;6.97;;;;;;;-3.77;100.00;94471.09;5069627;28;24816;-73
2022/12/09 07:14:04;;;;;;;10.53;8.37;;;;;;;-3.86;100.00;94466.28;5065241;28;26060;-73
2022/12/09 07:16:31;;;;;;;11.80;7.47;;;;;;;-4.03;100.00;94475.19;5068061;28;24789;-73
2022/12/09 07:18:57;;;;;;;11.52;7.97;;;;;;;-4.18;100.00;94470.53;5069229;28;24808;-73
2022/12/09 07:21:25;;;;;;;11.02;7.60;;;;;;;-4.20;100.00;94470.56;5066524;28;24434;-73
2022/12/09 07:23:52;;;;;;;9.55;7.45;;;;;;;-4.02;100.00;94464.19;5069274;28;24868;-73
2022/12/09 07:26:18;;;;;;;8.80;7.57;;;;;;;-3.94;100.00;94464.81;5068618;28;24458;-71
2022/12/09 07:28:47;;;;;;;9.57;7.20;;;;;;;-4.04;100.00;94473.53;5063715;28;24797;-73
2022/12/09 07:31:18;;;;;;;8.65;7.18;;;;;;;-3.99;100.00;94471.69;5068889;28;24800;-73
2022/12/09 07:33:45;;;;;;;8.65;7.07;;;;;;;-4.13;100.00;94472.06;5069622;28;24438;-73
2022/12/09 07:36:12;;;;;;;7.72;6.93;;;;;;;-3.92;100.00;94479.94;5070479;28;24435;-74
2022/12/09 07:38:40;;;;;;;13.32;7.20;;;;;;;-3.90;100.00;94473.13;5066253;28;24443;-73
2022/12/09 07:41:08;;;;;;;7.70;6.90;;;;;;;-3.92;100.00;94468.13;5065836;28;24442;-74
2022/12/09 07:43:36;;;;;;;9.77;7.13;;;;;;;-3.82;100.00;94470.38;5067956;28;24474;-74
2022/12/09 07:46:05;;;;;;;8.63;7.20;;;;;;;-3.79;100.00;94471.13;5070463;28;25302;-74
2022/12/09 07:48:32;;;;;;;11.40;7.72;;;;;;;-3.81;100.00;94472.91;5069337;28;24442;-74
2022/12/09 07:50:59;;;;;;;9.30;7.22;;;;;;;-3.77;100.00;94474.47;5069328;28;24445;-82
2022/12/09 07:53:26;;;;;;;9.95;7.28;;;;;;;-3.79;100.00;94476.19;5063689;28;24436;-73
2022/12/09 07:55:54;;;;;;;9.43;7.57;;;;;;;-3.53;100.00;94472.09;5061069;28;24442;-74
2022/12/09 07:58:20;;;;;;;11.00;7.35;;;;;;;-3.50;100.00;94462.72;5066339;28;24431;-74
2022/12/09 08:00:47;;;;;;;8.48;7.13;;;;;;;-3.44;100.00;94467.59;5064758;28;24438;-73
2022/12/09 08:03:13;;;;;;;9.82;7.35;;;;;;;-3.51;100.00;94461.06;5067045;28;24454;-73
2022/12/09 08:05:46;;;;;;;8.85;7.38;;;;;;;-3.49;100.00;94458.47;5060948;28;24451;-74
2022/12/09 08:08:12;;;;;;;9.25;7.40;;;;;;;-3.46;100.00;94458.38;5063619;28;24450;-74
2022/12/09 08:10:39;;;;;;;8.93;6.85;;;;;;;-3.47;100.00;94462.63;5068416;28;24458;-74
2022/12/09 08:13:07;;;;;;;9.60;7.20;;;;;;;-3.40;100.00;94458.22;5062316;28;24802;-74
2022/12/09 08:15:33;;;;;;;8.60;6.60;;;;;;;-3.32;100.00;94468.13;5064525;28;24496;-74
2022/12/09 08:18:00;;;;;;;6.90;6.13;;;;;;;-3.23;100.00;94461.03;5062854;28;24427;-73
2022/12/09 08:20:27;;;;;;;8.60;6.95;;;;;;;-3.13;100.00;94453.19;5068973;28;25202;-73
2022/12/09 08:22:53;;;;;;;7.97;6.60;;;;;;;-3.06;100.00;94452.94;5069051;28;25022;-73
2022/12/09 08:25:20;;;;;;;7.70;6.82;;;;;;;-2.92;100.00;94460.13;5068679;28;24441;-73
2022/12/09 08:27:46;;;;;;;11.38;7.80;;;;;;;-2.77;100.00;94459.63;5059675;28;24996;-73
2022/12/09 08:30:14;;;;;;;14.95;8.25;;;;;;;-2.65;100.00;94452.50;5066562;28;24442;-71
2022/12/09 08:32:41;;;;;;;17.83;10.02;;;;;;;-2.85;100.00;94451.44;5069432;28;25105;-71
2022/12/09 08:35:13;;;;;;;14.30;10.90;;;;;;;-2.89;100.00;94449.91;5066300;28;24464;-71
2022/12/09 08:37:40;;;;;;;16.25;11.30;;;;;;;-2.84;100.00;94444.69;5058845;28;24443;-72
2022/12/09 08:40:07;;;;;;;18.50;11.98;;;;;;;-2.93;100.00;94444.09;5067200;28;24450;-72
2022/12/09 08:42:34;;;;;;;14.43;11.27;;;;;;;-2.80;100.00;94434.38;5069067;28;24984;-72
2022/12/09 08:45:00;;;;;;;16.98;11.93;;;;;;;-2.64;100.00;94433.88;5066708;28;24435;-71
2022/12/09 08:47:28;;;;;;;17.50;12.90;;;;;;;-2.60;100.00;94431.19;5060157;28;24524;-71
2022/12/09 08:49:55;;;;;;;19.05;12.52;;;;;;;-2.50;100.00;94434.25;5058764;28;25099;-73
2022/12/09 08:52:21;;;;;;;17.25;11.52;;;;;;;-2.63;100.00;94430.47;5063582;28;24443;-72
2022/12/09 08:54:48;;;;;;;17.70;11.37;;;;;;;-2.55;100.00;94431.88;5065414;28;24439;-71
2022/12/09 08:57:14;;;;;;;10.43;8.68;;;;;;;-2.64;100.00;94418.66;5064020;28;24446;-72
2022/12/09 08:59:41;;;;;;;13.48;9.40;;;;;;;-2.68;100.00;94423.84;5061227;28;24481;-72
2022/12/09 09:02:07;;;;;;;11.23;8.43;;;;;;;-2.58;100.00;94418.47;5059870;28;24435;-72
2022/12/09 09:04:35;;;;;;;10.98;9.07;;;;;;;-2.80;100.00;94416.66;5056951;28;24435;-73
2022/12/09 09:07:02;;;;;;;8.05;7.00;;;;;;;-2.97;100.00;94414.66;5064368;28;24461;-72
2022/12/09 09:09:28;;;;;;;14.60;11.98;;;;;;;-3.14;100.00;94413.56;5066504;28;24490;-71
2022/12/09 09:11:55;;;;;;;14.13;10.85;;;;;;;-3.10;100.00;94415.09;5063136;28;24992;-72
2022/12/09 09:14:21;;;;;;;11.07;9.33;;;;;;;-3.05;100.00;94425.91;5053615;28;24513;-73
2022/12/09 09:16:48;;;;;;;17.10;12.18;;;;;;;-2.94;100.00;94431.47;5060343;28;24427;-73
2022/12/09 09:19:17;;;;;;;14.57;11.90;;;;;;;-2.98;100.00;94424.84;5065524;28;24986;-74
2022/12/09 09:21:45;;;;;;;15.60;12.55;;;;;;;-2.94;100.00;94426.41;5063267;28;24439;-72
2022/12/09 09:24:14;;;;;;;16.50;13.30;;;;;;;-2.83;100.00;94426.88;5063218;28;24446;-72
2022/12/09 09:26:42;;;;;;;21.73;14.05;;;;;;;-2.79;100.00;94415.75;5061997;28;24455;-71
2022/12/09 09:29:10;;;;;;;15.23;13.07;;;;;;;-2.65;100.00;94420.38;5068231;28;24435;-71
2022/12/09 09:31:37;;;;;;;14.55;12.30;;;;;;;-2.49;100.00;94418.97;5062713;28;24441;-71
2022/12/09 09:34:04;;;;;;;17.60;13.00;;;;;;;-2.34;100.00;94415.09;5059510;28;24443;-71
2022/12/09 09:36:32;;;;;;;12.23;10.95;;;;;;;-2.26;100.00;94415.69;5061512;28;20833;-71
2022/12/09 09:39:00;;;;;;;13.88;11.85;;;;;;;-2.11;100.00;94414.31;5066847;28;24437;-71
2022/12/09 09:41:43;;;;;;;12.57;11.05;;;;;;;-2.02;100.00;94413.97;5064002;28;24462;-72
2022/12/09 09:44:18;;;;;;;13.40;10.98;;;;;;;-1.89;100.00;94404.22;5063454;28;24433;-72
2022/12/09 09:46:47;;;;;;;15.38;11.20;;;;;;;-1.81;100.00;94398.88;5059930;28;24458;-72
2022/12/09 09:49:19;;;;;;;16.13;10.57;;;;;;;-1.72;100.00;94390.91;5066639;28;24431;-72
2022/12/09 09:51:46;;;;;;;12.65;10.00;;;;;;;-1.63;100.00;94388.03;5057713;28;24473;-72
2022/12/09 09:54:15;;;;;;;12.77;10.57;;;;;;;-1.58;100.00;94396.28;5057286;28;24434;-72
2022/12/09 09:56:50;;;;;;;11.68;9.60;;;;;;;-1.64;100.00;94385.53;5063396;28;24439;-72
2022/12/09 09:59:22;;;;;;;11.27;9.23;;;;;;;-1.67;100.00;94394.06;5058695;28;24834;-72
2022/12/09 10:01:59;;;;;;;13.57;9.68;;;;;;;-1.70;100.00;94396.75;5064025;28;25002;-72
2022/12/09 10:04:33;;;;;;;14.48;9.77;;;;;;;-1.68;100.00;94396.69;5060168;28;25051;-72
2022/12/09 10:07:05;;;;;;;17.35;12.93;;;;;;;-1.72;100.00;94391.72;5062621;28;24453;-71
2022/12/09 10:09:40;;;;;;;15.52;12.75;;;;;;;-1.64;100.00;94386.34;5066657;28;24804;-72
2022/12/09 10:12:17;;;;;;;17.23;12.52;;;;;;;-1.58;100.00;94377.69;5062046;28;24443;-72
2022/12/09 10:14:52;;;;;;;14.48;11.05;;;;;;;-1.61;100.00;94387.97;5055192;28;24527;-72
2022/12/09 10:17:27;;;;;;;12.68;10.25;;;;;;;-1.72;100.00;94383.28;5056898;28;24442;-72
2022/12/09 10:19:57;;;;;;;13.48;9.85;;;;;;;-1.71;100.00;94385.78;5063625;28;24530;-73
2022/12/09 10:22:41;;;;;;;13.45;10.05;;;;;;;-1.53;100.00;94378.34;5067875;28;24836;-72
2022/12/09 10:25:17;;;;;;;11.52;9.50;;;;;;;-1.43;100.00;94377.09;5067172;28;24488;-72
2022/12/09 10:27:52;;;;;;;13.85;10.02;;;;;;;-1.45;100.00;94376.31;5062249;28;24451;-72
2022/12/09 10:30:19;;;;;;;20.15;12.20;;;;;;;-1.41;100.00;94375.31;5064122;28;24435;-72
2022/12/09 10:32:46;;;;;;;24.30;12.52;;;;;;;-1.44;100.00;94362.75;5071697;28;24439;-73
2022/12/09 10:35:15;;;;;;;17.33;13.45;;;;;;;-1.52;100.00;94355.44;5062118;28;24437;-72
2022/12/09 10:37:41;;;;;;;16.48;12.13;;;;;;;-1.43;100.00;94364.41;5060629;28;24442;-73
2022/12/09 10:40:21;;;;;;;21.13;12.32;;;;;;;-1.47;100.00;94366.25;5063802;28;24996;-73
2022/12/09 10:45:34;;;;;;;13.43;11.32;;;;;;;-1.19;100.00;94349.09;5066070;28;24982;-73
2022/12/09 10:48:00;;;;;;;12.30;10.15;;;;;;;-1.23;100.00;94341.56;5063944;28;25022;-74
2022/12/09 10:50:31;;;;;;;12.20;10.15;;;;;;;-1.07;100.00;94349.44;5067439;28;24441;-72
2022/12/09 10:53:03;;;;;;;12.63;9.63;;;;;;;-1.38;100.00;94352.34;5060537;28;24488;-72
2022/12/09 10:55:35;;;;;;;11.00;9.70;;;;;;;-1.34;100.00;94355.59;5066436;28;24442;-73
2022/12/09 10:58:16;;;;;;;12.07;10.73;;;;;;;-1.18;100.00;94360.91;5069089;28;24979;-72
2022/12/09 11:00:43;;;;;;;14.20;10.52;;;;;;;-1.09;100.00;94358.81;5062469;28;24810;-72
2022/12/09 11:03:25;;;;;;;12.45;10.40;;;;;;;-1.19;100.00;94349.91;5068579;28;24521;-72
2022/12/09 11:05:57;;;;;;;13.38;10.70;;;;;;;-1.25;100.00;94350.16;5063518;28;24434;-71
2022/12/09 11:08:24;;;;;;;14.05;10.60;;;;;;;-1.29;100.00;94349.47;5064864;28;24462;-71
2022/12/09 11:10:52;;;;;;;18.40;12.60;;;;;;;-1.26;100.00;94354.44;5062079;28;24983;-71
2022/12/09 11:13:32;;;;;;;14.65;12.73;;;;;;;-1.20;100.00;94344.91;5068313;28;24435;-71
2022/12/09 11:16:03;;;;;;;12.60;11.00;;;;;;;-1.13;100.00;94339.50;5067406;28;25030;-71
2022/12/09 11:18:31;;;;;;;12.55;10.88;;;;;;;-0.92;100.00;94331.91;5063017;28;25091;-71
2022/12/09 11:21:00;;;;;;;11.73;10.48;;;;;;;-1.05;100.00;94326.50;5067339;28;24492;-71
2022/12/09 11:23:27;;;;;;;12.03;10.47;;;;;;;-0.97;100.00;94325.28;5070143;28;24868;-71
2022/12/09 11:25:57;;;;;;;11.93;10.63;;;;;;;-0.96;100.00;94323.59;5066745;28;24484;-71